Portada
METAR-TAF:

METAR-TAF

Aeropuertos :

Aeropuerto de Almería

Almería, España

latitud: 36-51N, longitud: 002-23W, altitud: 15 m

Observación

El informe se hizo hace 26 minutos, a las 22:30 UTC
Viento 4 kt del norte
Temperatura 16°C
Humedad 82%
Presión 1019 hPa
Visibilidad 10 km o más

METAR: LEAM 162230Z AUTO 35004KT 9999 NCD 16/13 Q1019

Hora: 00:56 (22:56 UTC)

Pronóstico

El informe se hizo hace 2 horas y 56 minutos, a las 20:00 UTC
Pronóstico válido del 16 a las 21 UTC al 17 a las 21 UTC
Viento 6 kt del norte-noroeste
Visibilidad 10 km o más
sin nubes por debajo de 1500 m y sin presencia de cumulonimbus.
Evolucionando progresivamente
del 17 a las 09 UTC al 17 a las 11 UTC
Viento 11 kt del suroeste
Evolucionando progresivamente
del 17 a las 19 UTC al 17 a las 21 UTC
Viento 2 kt con dirección variable

TAF: LEAM 162000Z 1621/1721 34006KT CAVOK TX24/1712Z TN14/1705Z BECMG 1709/1711 22011KT BECMG 1719/1721 VRB02KT

Observaciones y pronósticos meteorológicos de más de 4000 aeropuertos (mensajes METAR y TAF).

Los puntos amarillos y rojos representan las estaciones disponibles.

Ponga el ratón en el punto deseado para ver el nombre de la estación.

Haga clic para ver las observaciones y los pronósticos meteorológicos.

Para cambiar el mapa : haga clic en los botones verdes con una cruz de color negro para hacer un zoom, en el botón verde con un guión para alejar o en las flechas verdes para mapas adyacentes.


METAR-TAF: